createdAt,value
2022-08-09T00:04:00.558Z,12.57
2022-08-09T00:07:10.737Z,12.53
2022-08-09T00:10:32.577Z,12.50
2022-08-09T00:14:09.381Z,12.42
2022-08-09T00:18:06.134Z,12.36
2022-08-09T00:21:28.661Z,12.26
2022-08-09T00:25:08.546Z,12.10
2022-08-09T00:28:42.300Z,11.99
2022-08-09T00:32:38.136Z,11.97
2022-08-09T00:36:20.476Z,11.99
2022-08-09T00:40:09.301Z,11.98
2022-08-09T00:44:16.858Z,11.94
2022-08-09T00:47:08.601Z,11.84
2022-08-09T00:50:45.024Z,11.71
2022-08-09T00:54:22.970Z,11.58
2022-08-09T00:58:25.407Z,11.56
2022-08-09T01:01:50.535Z,11.63
2022-08-09T01:05:54.597Z,11.71
2022-08-09T01:09:36.657Z,11.92
2022-08-09T01:13:19.365Z,12.15
2022-08-09T01:16:47.377Z,12.28
2022-08-09T01:20:50.098Z,12.22
2022-08-09T01:24:37.396Z,12.02
2022-08-09T01:28:25.995Z,11.89
2022-08-09T01:32:33.272Z,11.75
2022-08-09T01:36:04.561Z,11.62
2022-08-09T01:39:31.178Z,11.53
2022-08-09T01:43:07.244Z,11.52
2022-08-09T01:46:47.153Z,11.50
2022-08-09T01:50:29.019Z,11.48
2022-08-09T01:54:03.986Z,11.45
2022-08-09T01:57:45.846Z,11.31
2022-08-09T02:01:18.483Z,11.15
2022-08-09T02:04:50.979Z,11.04
2022-08-09T02:08:40.051Z,10.91
2022-08-09T02:12:21.140Z,10.79
2022-08-09T02:15:50.719Z,10.72
2022-08-09T02:19:24.587Z,10.70
2022-08-09T02:23:17.896Z,10.64
2022-08-09T02:27:03.506Z,10.61
2022-08-09T02:30:51.731Z,10.53
2022-08-09T02:34:40.738Z,10.42
2022-08-09T02:38:03.044Z,10.31
2022-08-09T02:41:45.590Z,10.22
2022-08-09T02:45:40.170Z,10.16
2022-08-09T02:49:09.964Z,10.10
2022-08-09T02:52:44.729Z,10.05
2022-08-09T02:56:18.955Z,10.04
2022-08-09T03:00:20.631Z,10.05
2022-08-09T03:04:17.096Z,10.04
2022-08-09T03:08:01.401Z,10.04
2022-08-09T03:12:04.552Z,10.05
2022-08-09T03:15:09.865Z,10.14
2022-08-09T03:18:44.525Z,10.20
2022-08-09T03:22:25.372Z,10.18
2022-08-09T03:26:05.093Z,10.12
2022-08-09T03:29:57.001Z,10.07
2022-08-09T03:33:20.874Z,10.07
2022-08-09T03:36:59.764Z,10.06
2022-08-09T03:40:33.155Z,10.08
2022-08-09T03:44:10.199Z,10.13
2022-08-09T03:48:05.890Z,10.20
2022-08-09T03:51:57.172Z,10.20
2022-08-09T03:55:35.947Z,10.12
2022-08-09T03:58:58.656Z,10.05
2022-08-09T04:02:35.832Z,10.06
2022-08-09T04:06:31.120Z,10.11
2022-08-09T04:09:52.973Z,10.21
2022-08-09T04:14:52.975Z,10.34
2022-08-09T04:17:49.194Z,10.43
2022-08-09T04:21:38.443Z,10.48
2022-08-09T04:25:01.310Z,10.51
2022-08-09T04:28:36.932Z,10.52
2022-08-09T04:32:34.060Z,10.52
2022-08-09T04:35:58.744Z,10.54
2022-08-09T04:39:40.685Z,10.60
2022-08-09T04:43:12.320Z,10.69
2022-08-09T04:46:57.455Z,10.81
2022-08-09T04:50:31.847Z,10.95
2022-08-09T04:54:03.270Z,11.11
2022-08-09T04:57:53.853Z,11.26
2022-08-09T05:01:20.982Z,11.39
2022-08-09T05:04:57.745Z,11.51
2022-08-09T05:08:35.623Z,11.63
2022-08-09T05:12:12.592Z,11.74
2022-08-09T05:15:56.828Z,11.86
2022-08-09T05:19:44.860Z,12.04
2022-08-09T05:23:55.166Z,12.27
2022-08-09T05:27:09.642Z,12.50
2022-08-09T05:30:54.355Z,12.72
2022-08-09T05:34:17.683Z,12.93
2022-08-09T05:37:55.901Z,13.11
2022-08-09T05:41:30.890Z,13.29
2022-08-09T05:45:08.656Z,13.49
2022-08-09T05:49:03.372Z,13.67
2022-08-09T05:52:30.720Z,13.91
2022-08-09T05:56:06.565Z,14.13
2022-08-09T05:59:43.057Z,14.32
2022-08-09T06:03:54.745Z,14.53
2022-08-09T06:07:39.380Z,14.79
2022-08-09T06:11:16.705Z,15.06
2022-08-09T06:14:40.874Z,15.33
2022-08-09T06:18:37.009Z,15.56
2022-08-09T06:22:00.111Z,15.80
2022-08-09T06:25:36.891Z,16.02
2022-08-09T06:29:14.865Z,16.20
2022-08-09T06:32:58.987Z,16.38
2022-08-09T06:36:29.753Z,16.56
2022-08-09T06:40:21.793Z,16.74
2022-08-09T06:44:06.223Z,16.93
2022-08-09T06:47:49.279Z,17.12
2022-08-09T06:51:23.011Z,17.32
2022-08-09T06:54:59.578Z,17.48
2022-08-09T07:00:54.357Z,17.64
2022-08-09T07:02:36.973Z,17.84
2022-08-09T07:06:32.093Z,17.96
2022-08-09T07:10:01.227Z,18.12
2022-08-09T07:14:04.298Z,18.28
2022-08-09T07:17:56.083Z,18.41
2022-08-09T07:21:21.725Z,18.53
2022-08-09T07:24:58.405Z,18.69
2022-08-09T07:28:38.250Z,18.85
2022-08-09T07:32:41.073Z,19.01
2022-08-09T07:36:22.818Z,19.16
2022-08-09T07:39:44.077Z,19.31
2022-08-09T07:43:49.528Z,19.46
2022-08-09T07:47:11.732Z,19.56
2022-08-09T07:52:02.629Z,19.63
2022-08-09T07:54:51.613Z,19.74
2022-08-09T07:58:44.516Z,19.85
2022-08-09T08:02:28.189Z,19.98
2022-08-09T08:06:09.894Z,20.06
2022-08-09T08:09:42.938Z,20.14
2022-08-09T08:13:14.321Z,20.27
2022-08-09T08:17:12.151Z,20.32
2022-08-09T08:20:46.749Z,20.36
2022-08-09T08:24:23.295Z,20.42
2022-08-09T08:28:00.541Z,20.53
2022-08-09T08:31:56.577Z,20.59
2022-08-09T08:35:58.996Z,20.67
2022-08-09T08:39:22.009Z,20.80
2022-08-09T08:43:17.537Z,20.89
2022-08-09T08:47:02.422Z,20.98
2022-08-09T08:50:49.349Z,21.07
2022-08-09T08:54:20.199Z,21.17
2022-08-09T08:57:56.353Z,21.28
2022-08-09T09:01:35.478Z,21.32
2022-08-09T09:05:13.247Z,21.37
2022-08-09T09:08:52.820Z,21.52
2022-08-09T09:12:29.811Z,21.68
2022-08-09T09:16:01.897Z,21.86
2022-08-09T09:19:41.195Z,21.90
2022-08-09T09:23:48.982Z,21.95
2022-08-09T09:27:21.964Z,22.00
2022-08-09T09:32:06.038Z,22.03
2022-08-09T09:35:07.574Z,22.17
2022-08-09T09:38:48.822Z,22.28
2022-08-09T09:42:25.549Z,22.35
2022-08-09T09:50:07.207Z,22.56
2022-08-09T09:53:52.052Z,22.81
2022-08-09T09:58:00.862Z,23.09
2022-08-09T10:01:37.332Z,23.31
2022-08-09T10:05:26.743Z,23.59
2022-08-09T10:09:22.438Z,23.72
2022-08-09T10:12:53.921Z,23.77
2022-08-09T10:16:58.024Z,23.66
2022-08-09T10:20:37.347Z,23.62
2022-08-09T10:24:06.951Z,23.84
2022-08-09T10:27:56.799Z,23.92
2022-08-09T10:35:04.188Z,24.03
2022-08-09T10:39:00.363Z,24.15
2022-08-09T10:42:41.271Z,24.35
2022-08-09T10:46:57.380Z,24.56
2022-08-09T10:51:05.292Z,24.37
2022-08-09T10:54:48.377Z,24.25
2022-08-09T10:58:34.692Z,24.54
2022-08-09T11:03:15.686Z,24.44
2022-08-09T11:06:00.302Z,24.43
2022-08-09T11:09:48.124Z,24.43
2022-08-09T11:13:21.706Z,24.38
2022-08-09T11:16:59.230Z,24.34
2022-08-09T11:20:53.698Z,24.14
2022-08-09T11:24:16.434Z,24.00
2022-08-09T11:28:05.077Z,23.93
2022-08-09T11:31:43.423Z,23.81
2022-08-09T11:35:50.366Z,23.83
2022-08-09T11:39:14.618Z,23.86
2022-08-09T11:42:53.815Z,23.73
2022-08-09T11:46:54.322Z,23.68
2022-08-09T11:50:53.114Z,23.60
2022-08-09T11:54:27.888Z,23.64
2022-08-09T11:58:02.502Z,23.59
2022-08-09T12:02:17.022Z,23.48
2022-08-09T12:05:39.572Z,23.54
2022-08-09T12:09:19.230Z,23.57
2022-08-09T12:12:48.235Z,23.54
2022-08-09T12:16:38.552Z,23.50
2022-08-09T12:20:16.771Z,23.49
2022-08-09T12:24:06.161Z,23.58
2022-08-09T12:29:15.613Z,23.59
2022-08-09T12:31:30.988Z,23.57
2022-08-09T12:35:13.323Z,23.66
2022-08-09T12:38:50.623Z,23.74
2022-08-09T12:42:25.852Z,23.84
2022-08-09T12:46:03.122Z,23.99
2022-08-09T12:49:39.697Z,24.01
2022-08-09T12:53:36.657Z,23.84
2022-08-09T12:57:01.186Z,23.65
2022-08-09T13:00:47.460Z,23.61
2022-08-09T13:04:37.173Z,23.59
2022-08-09T13:08:40.124Z,23.55
2022-08-09T13:12:05.148Z,23.47
2022-08-09T13:16:03.857Z,23.42
2022-08-09T13:20:08.803Z,23.40
2022-08-09T13:24:17.594Z,23.37
2022-08-09T13:27:40.179Z,23.32
2022-08-09T13:32:16.211Z,23.31
2022-08-09T13:35:02.451Z,23.27
2022-08-09T13:38:57.570Z,23.32
2022-08-09T13:42:19.112Z,23.45
2022-08-09T13:46:42.224Z,23.57
2022-08-09T13:49:57.360Z,24.14
2022-08-09T13:53:27.100Z,24.61
2022-08-09T13:57:06.725Z,25.25
2022-08-09T14:00:46.818Z,25.61
2022-08-09T14:04:23.956Z,25.65
2022-08-09T14:08:01.335Z,25.27
2022-08-09T14:11:52.458Z,25.11
2022-08-09T14:16:02.090Z,25.31
2022-08-09T14:18:57.360Z,25.47
2022-08-09T14:22:33.706Z,25.26
2022-08-09T14:26:10.229Z,24.90
2022-08-09T14:30:34.110Z,24.89
2022-08-09T14:33:28.891Z,25.18
2022-08-09T14:37:07.787Z,25.32
2022-08-09T14:41:04.231Z,25.45
2022-08-09T14:44:32.262Z,25.57
2022-08-09T14:48:02.425Z,25.80
2022-08-09T14:51:42.243Z,26.04
2022-08-09T14:55:20.346Z,26.29
2022-08-09T14:59:14.468Z,26.80
2022-08-09T15:02:36.418Z,27.24
2022-08-09T15:06:13.029Z,27.43
2022-08-09T15:10:07.892Z,27.63
2022-08-09T15:13:48.444Z,27.84
2022-08-09T15:17:15.930Z,27.81
2022-08-09T15:21:57.107Z,27.86
2022-08-09T15:24:35.178Z,27.94
2022-08-09T15:28:26.391Z,28.20
2022-08-09T15:32:39.220Z,28.15
2022-08-09T15:36:12.142Z,27.81
2022-08-09T15:39:55.389Z,27.81
2022-08-09T15:43:39.599Z,27.72
2022-08-09T15:47:02.285Z,27.31
2022-08-09T15:50:38.946Z,27.19
2022-08-09T15:54:31.424Z,26.92
2022-08-09T15:58:26.808Z,26.77
2022-08-09T16:01:49.463Z,26.70
2022-08-09T16:05:53.318Z,26.92
2022-08-09T16:09:16.885Z,27.10
2022-08-09T16:12:57.523Z,27.12
2022-08-09T16:16:49.750Z,27.07
2022-08-09T16:20:13.587Z,26.93
2022-08-09T16:24:29.971Z,26.96
2022-08-09T16:28:11.899Z,26.70
2022-08-09T16:32:11.178Z,26.59
2022-08-09T16:35:57.506Z,26.52
2022-08-09T16:39:20.480Z,26.29
2022-08-09T16:42:57.647Z,26.26
2022-08-09T16:46:55.114Z,26.14
2022-08-09T16:50:32.196Z,26.09
2022-08-09T16:54:26.050Z,26.24
2022-08-09T16:58:10.205Z,26.31
2022-08-09T17:01:27.903Z,26.24
2022-08-09T17:05:23.455Z,26.10
2022-08-09T17:09:16.251Z,26.09
2022-08-09T17:12:47.886Z,26.05
2022-08-09T17:16:24.892Z,25.95
2022-08-09T17:20:32.269Z,25.72
2022-08-09T17:24:26.806Z,25.44
2022-08-09T17:27:26.728Z,25.16
2022-08-09T17:31:03.274Z,24.76
2022-08-09T17:35:07.613Z,24.32
2022-08-09T17:38:41.341Z,23.89
2022-08-09T17:42:41.024Z,23.47
2022-08-09T17:46:08.792Z,23.12
2022-08-09T17:49:51.298Z,22.79
2022-08-09T17:53:22.449Z,22.47
2022-08-09T17:56:56.764Z,22.18
2022-08-09T18:00:44.205Z,21.88
2022-08-09T18:04:10.532Z,21.64
2022-08-09T18:07:48.879Z,21.37
2022-08-09T18:11:24.103Z,21.10
2022-08-09T18:15:04.661Z,20.79
2022-08-09T18:18:43.297Z,20.52
2022-08-09T18:22:17.003Z,20.26
2022-08-09T18:25:54.429Z,20.03
2022-08-09T18:30:41.357Z,19.81
2022-08-09T18:33:13.571Z,19.55
2022-08-09T18:36:49.463Z,19.28
2022-08-09T18:40:26.774Z,19.10
2022-08-09T18:44:25.521Z,18.88
2022-08-09T18:47:48.351Z,18.74
2022-08-09T18:51:55.477Z,18.61
2022-08-09T18:55:45.736Z,18.39
2022-08-09T18:59:21.794Z,18.27
2022-08-09T19:02:54.075Z,18.12
2022-08-09T19:06:50.691Z,17.98
2022-08-09T19:10:17.536Z,17.87
2022-08-09T19:13:51.711Z,17.76
2022-08-09T19:17:31.340Z,17.61
2022-08-09T19:21:51.706Z,17.44
2022-08-09T19:25:42.562Z,17.28
2022-08-09T19:29:18.211Z,17.16
2022-08-09T19:32:42.611Z,17.04
2022-08-09T19:36:38.096Z,16.93
2022-08-09T19:40:06.330Z,16.80
2022-08-09T19:44:00.830Z,16.71
2022-08-09T19:47:26.912Z,16.62
2022-08-09T19:51:01.915Z,16.54
2022-08-09T19:54:40.221Z,16.48
2022-08-09T19:58:16.487Z,16.45
2022-08-09T20:02:17.326Z,16.46
2022-08-09T20:05:55.170Z,16.42
2022-08-09T20:09:44.680Z,16.40
2022-08-09T20:13:10.420Z,16.37
2022-08-09T20:16:53.430Z,16.18
2022-08-09T20:20:24.741Z,15.94
2022-08-09T20:23:59.338Z,15.85
2022-08-09T20:27:38.505Z,15.72
2022-08-09T20:31:13.793Z,15.69
2022-08-09T20:34:50.793Z,15.64
2022-08-09T20:38:37.615Z,15.60
2022-08-09T20:42:09.461Z,15.60
2022-08-09T20:45:59.462Z,15.63
2022-08-09T20:49:27.549Z,15.66
2022-08-09T20:53:02.592Z,15.66
2022-08-09T20:56:38.651Z,15.63
2022-08-09T21:00:19.882Z,15.59
2022-08-09T21:05:48.943Z,15.59
2022-08-09T21:07:38.664Z,15.63
2022-08-09T21:15:13.030Z,15.67
2022-08-09T21:20:05.255Z,15.68
2022-08-09T21:22:38.366Z,15.68
2022-08-09T21:26:08.252Z,15.68
2022-08-09T21:30:03.792Z,15.69
2022-08-09T21:33:26.145Z,15.67
2022-08-09T21:37:02.521Z,15.64
2022-08-09T21:40:58.803Z,15.62
2022-08-09T21:44:42.854Z,15.58
2022-08-09T21:48:07.631Z,15.54
2022-08-09T21:51:43.512Z,15.52
2022-08-09T21:55:18.955Z,15.47
2022-08-09T21:58:55.878Z,15.45
2022-08-09T22:02:58.242Z,15.43
2022-08-09T22:06:21.821Z,15.43
2022-08-09T22:10:23.205Z,15.41
2022-08-09T22:13:45.755Z,15.31
2022-08-09T22:17:22.990Z,15.19
2022-08-09T22:20:59.616Z,15.00
2022-08-09T22:24:39.571Z,14.85
2022-08-09T22:28:32.313Z,14.68
2022-08-09T22:31:59.776Z,14.57
2022-08-09T22:36:01.767Z,14.49
2022-08-09T22:39:47.139Z,14.41
2022-08-09T22:43:01.333Z,14.33
2022-08-09T22:48:16.237Z,14.19
2022-08-09T22:50:52.944Z,14.05
2022-08-09T22:54:34.322Z,13.90
2022-08-09T22:57:59.360Z,13.78
2022-08-09T23:01:53.571Z,13.66
2022-08-09T23:05:37.748Z,13.55
2022-08-09T23:09:00.687Z,13.44
2022-08-09T23:12:57.331Z,13.38
2022-08-09T23:16:38.155Z,13.27
2022-08-09T23:20:07.967Z,13.23
2022-08-09T23:24:04.149Z,13.18
2022-08-09T23:28:14.389Z,13.11
2022-08-09T23:31:28.707Z,13.07
2022-08-09T23:35:06.703Z,12.97
2022-08-09T23:38:48.624Z,12.81
2022-08-09T23:42:18.899Z,12.68
2022-08-09T23:46:14.963Z,12.59
2022-08-09T23:49:36.845Z,12.47
2022-08-09T23:53:13.974Z,12.31
2022-08-09T23:56:54.360Z,12.25
